Time;durP1;ratioP1;P1;durP2;ratioP2;P2;SDS_P1;SDS_P2;PMS_P1;PMS_P2;Temp;Humidity;BMP_temperature;BMP_pressure;BME280_temperature;BME280_humidity;BME280_pressure;Samples;Min_cycle;Max_cycle;Signal;HPM_P1;HPM_P2
2019/10/12 00:00:07;;;;;;;7.9;5;;;;;;;10;97.58496;1001.442;;;;
2019/10/12 00:02:31;;;;;;;8.7;5.7;;;;;;;9.89;97.11719;1001.407;;;;
2019/10/12 00:04:57;;;;;;;6.6;5.4;;;;;;;9.88;97.69824;1001.384;;;;
2019/10/12 00:07:22;;;;;;;6.5;5.3;;;;;;;9.84;97.36621;1001.395;;;;
2019/10/12 00:09:50;;;;;;;7.4;5.5;;;;;;;9.92;97.39746;1001.321;;;;
2019/10/12 00:13:03;;;;;;;6.9;5.8;;;;;;;9.77;97.60254;1001.371;;;;
2019/10/12 00:17:26;;;;;;;9.9;6.5;;;;;;;9.88;97.1377;1001.286;;;;
2019/10/12 00:19:28;;;;;;;6.7;5.9;;;;;;;9.81;97.02832;1001.31;;;;
2019/10/12 00:21:53;;;;;;;8.6;6.5;;;;;;;9.8;97.09668;1001.301;;;;
2019/10/12 00:24:18;;;;;;;8.6;6.4;;;;;;;9.75;97.26758;1001.318;;;;
2019/10/12 00:26:43;;;;;;;6.8;5.8;;;;;;;9.83;96.89746;1001.304;;;;
2019/10/12 00:29:08;;;;;;;8.6;6.7;;;;;;;9.86;96.58301;1001.322;;;;
2019/10/12 00:31:33;;;;;;;9.7;7.2;;;;;;;9.85;96.43262;1001.294;;;;
2019/10/12 00:33:59;;;;;;;9.8;7.9;;;;;;;9.78;96.66797;1001.327;;;;
2019/10/12 00:36:24;;;;;;;10.6;9.1;;;;;;;9.68;97;1001.324;;;;
2019/10/12 00:38:49;;;;;;;9.6;8.6;;;;;;;9.72;96.74707;1001.341;;;;
2019/10/12 00:41:14;;;;;;;11.3;9.9;;;;;;;9.77;96.24316;1001.329;;;;
2019/10/12 00:43:39;;;;;;;9.6;8.6;;;;;;;9.74;96.14551;1001.335;;;;
2019/10/12 00:46:05;;;;;;;9.8;7.5;;;;;;;9.61;96.62012;1001.334;;;;
2019/10/12 00:48:30;;;;;;;9.9;6.8;;;;;;;9.63;96.59961;1001.27;;;;
2019/10/12 00:50:55;;;;;;;11.7;6.1;;;;;;;9.7;96.06738;1001.252;;;;
2019/10/12 00:53:20;;;;;;;9;6.1;;;;;;;9.62;96.19922;1001.268;;;;
2019/10/12 00:57:29;;;;;;;7;5.7;;;;;;;9.49;96.90039;1001.248;;;;
2019/10/12 00:59:54;;;;;;;7.3;5.7;;;;;;;9.55;96.75293;1001.244;;;;
2019/10/12 01:02:19;;;;;;;8.2;5.8;;;;;;;9.38;97.25293;1001.209;;;;
2019/10/12 01:04:44;;;;;;;6.2;5.3;;;;;;;9.42;97.23828;1001.213;;;;
2019/10/12 01:07:09;;;;;;;8;5.9;;;;;;;9.45;97.95215;1001.245;;;;
2019/10/12 01:09:35;;;;;;;7.5;5.7;;;;;;;9.56;98.91309;1001.25;;;;
2019/10/12 01:12:00;;;;;;;7.9;5.6;;;;;;;9.56;97.88574;1001.274;;;;
2019/10/12 01:14:25;;;;;;;7;5.4;;;;;;;9.58;97.14941;1001.288;;;;
2019/10/12 01:16:50;;;;;;;8.6;6.1;;;;;;;9.5;97.55371;1001.316;;;;
2019/10/12 01:19:15;;;;;;;8.1;5.8;;;;;;;9.45;97.72363;1001.29;;;;
2019/10/12 01:21:40;;;;;;;8.2;5.9;;;;;;;9.42;98.24316;1001.262;;;;
2019/10/12 01:24:05;;;;;;;7.1;5.6;;;;;;;9.53;97.70996;1001.295;;;;
2019/10/12 01:26:31;;;;;;;7.2;5.6;;;;;;;9.48;97.36426;1001.239;;;;
2019/10/12 01:28:55;;;;;;;7.5;5.8;;;;;;;9.51;97.14258;1001.195;;;;
2019/10/12 01:31:21;;;;;;;8.2;5.6;;;;;;;9.5;96.60547;1001.115;;;;
2019/10/12 01:33:46;;;;;;;7.2;5.6;;;;;;;9.47;96.82617;1001.059;;;;
2019/10/12 01:36:11;;;;;;;7.1;5.5;;;;;;;9.33;97.12695;1001.099;;;;
2019/10/12 01:38:36;;;;;;;7.7;5.2;;;;;;;9.35;96.98438;1001.103;;;;
2019/10/12 01:41:01;;;;;;;6.9;5.2;;;;;;;9.18;97.71973;1001.083;;;;
2019/10/12 01:43:26;;;;;;;7.3;5.4;;;;;;;9.23;97.56055;1001.073;;;;
2019/10/12 01:45:51;;;;;;;8.3;5.1;;;;;;;9.24;97.35742;1001.142;;;;
2019/10/12 01:48:16;;;;;;;6.1;5.2;;;;;;;9.25;97.09668;1001.148;;;;
2019/10/12 01:50:41;;;;;;;7.9;5.3;;;;;;;9.32;96.71387;1001.189;;;;
2019/10/12 01:53:06;;;;;;;7.8;5.6;;;;;;;9.29;96.30762;1001.143;;;;
2019/10/12 01:55:31;;;;;;;7.3;5.4;;;;;;;9.27;96.50781;1001.153;;;;
2019/10/12 01:57:57;;;;;;;7.7;5.5;;;;;;;9.25;96.58301;1001.137;;;;
2019/10/12 02:00:22;;;;;;;5.8;5.2;;;;;;;9.21;96.80371;1001.128;;;;
2019/10/12 02:02:47;;;;;;;7.6;5.3;;;;;;;9.21;96.55273;1001.087;;;;
2019/10/12 02:05:12;;;;;;;7.9;5.6;;;;;;;9.19;96.81055;1001.064;;;;
2019/10/12 02:07:39;;;;;;;6.9;4.6;;;;;;;9.21;96.59766;1001.014;;;;
2019/10/12 02:10:02;;;;;;;6.7;5.1;;;;;;;9.26;96.20898;1001.033;;;;
2019/10/12 02:12:28;;;;;;;6;4.9;;;;;;;9.2;96.66211;1000.996;;;;
2019/10/12 02:14:53;;;;;;;7.9;5.4;;;;;;;9.29;96.25098;1001.009;;;;
2019/10/12 02:17:18;;;;;;;10.6;7.5;;;;;;;9.31;96.10449;1001.037;;;;
2019/10/12 02:19:43;;;;;;;11.5;7.4;;;;;;;9.3;95.80566;1001.05;;;;
2019/10/12 02:22:08;;;;;;;9.3;6.4;;;;;;;9.23;95.81641;1001.052;;;;
2019/10/12 02:24:33;;;;;;;7.7;6;;;;;;;9.23;95.71387;1001.069;;;;
2019/10/12 02:26:58;;;;;;;7.6;4.9;;;;;;;9.08;96.125;1001.168;;;;
2019/10/12 02:29:24;;;;;;;7.8;5.3;;;;;;;8.98;97.15234;1001.145;;;;
2019/10/12 02:31:49;;;;;;;6.2;4.8;;;;;;;8.99;96.77539;1001.125;;;;
2019/10/12 02:34:14;;;;;;;6.1;4.9;;;;;;;8.99;97.68848;1001.122;;;;
2019/10/12 02:36:39;;;;;;;5.9;5;;;;;;;8.97;97.61523;1001.05;;;;
2019/10/12 02:39:04;;;;;;;7.3;4.9;;;;;;;9;97.14453;1001.063;;;;
2019/10/12 02:41:29;;;;;;;6.5;4.7;;;;;;;9.03;96.6377;1001.048;;;;
2019/10/12 02:43:54;;;;;;;6.7;4.7;;;;;;;8.99;96.39941;1001.064;;;;
2019/10/12 02:46:20;;;;;;;6.8;4.7;;;;;;;8.95;96.59473;1001.078;;;;
2019/10/12 02:48:45;;;;;;;5.8;4.6;;;;;;;8.99;96.3418;1001.029;;;;
2019/10/12 02:51:10;;;;;;;7.3;4.4;;;;;;;8.94;96.56934;1001.03;;;;
2019/10/12 02:53:35;;;;;;;6.9;4.8;;;;;;;8.93;96.4209;1001.041;;;;
2019/10/12 02:56:00;;;;;;;7;4.7;;;;;;;8.9;96.46094;1001.095;;;;
2019/10/12 02:58:25;;;;;;;6.5;4.6;;;;;;;8.97;96.20117;1001.034;;;;
2019/10/12 03:00:50;;;;;;;6.7;4.4;;;;;;;8.89;96.47949;1000.979;;;;
2019/10/12 03:03:15;;;;;;;5.2;4;;;;;;;8.96;96.43848;1001.068;;;;
2019/10/12 03:05:40;;;;;;;7.1;4.4;;;;;;;8.81;97.22754;1001.008;;;;
2019/10/12 03:08:06;;;;;;;6.2;4.7;;;;;;;8.83;96.67285;1001.063;;;;
2019/10/12 03:10:31;;;;;;;5.2;4.6;;;;;;;8.84;96.78906;1001.006;;;;
2019/10/12 03:12:56;;;;;;;5.5;4.1;;;;;;;8.79;96.91309;1001.044;;;;
2019/10/12 03:15:21;;;;;;;6.4;4.5;;;;;;;8.81;96.74902;1001.081;;;;
2019/10/12 03:17:46;;;;;;;5.5;4.4;;;;;;;8.7;97.45215;1001.117;;;;
2019/10/12 03:20:11;;;;;;;6.8;4.5;;;;;;;8.86;97.00977;1001.052;;;;
2019/10/12 03:22:36;;;;;;;5.5;4.4;;;;;;;8.73;97.07031;1001.08;;;;
2019/10/12 03:25:01;;;;;;;6.1;4.5;;;;;;;8.77;97.30664;1001.069;;;;
2019/10/12 03:27:26;;;;;;;6.7;4.7;;;;;;;8.67;97.54785;1001.053;;;;
2019/10/12 03:29:51;;;;;;;6;4.6;;;;;;;8.66;97.56738;1001.038;;;;
2019/10/12 03:32:16;;;;;;;5.1;4.6;;;;;;;8.68;97.45898;1001.016;;;;
2019/10/12 03:34:41;;;;;;;5.4;4.2;;;;;;;8.71;97.63672;1000.971;;;;
2019/10/12 03:37:07;;;;;;;6.1;4.4;;;;;;;8.65;97.40723;1000.957;;;;
2019/10/12 03:39:32;;;;;;;6.9;4.6;;;;;;;8.72;97.39941;1000.946;;;;
2019/10/12 03:41:57;;;;;;;5.7;4.5;;;;;;;8.85;96.72266;1000.975;;;;
2019/10/12 03:46:33;;;;;;;5.6;4.3;;;;;;;8.85;96.10645;1001.005;;;;
2019/10/12 03:48:58;;;;;;;5.4;4.4;;;;;;;8.83;96.22852;1001.045;;;;
2019/10/12 03:53:25;;;;;;;5.1;4.2;;;;;;;8.8;96.4502;1001.036;;;;
2019/10/12 03:55:50;;;;;;;5.7;4.2;;;;;;;8.84;96.01367;1000.973;;;;
2019/10/12 03:58:15;;;;;;;5.2;4.4;;;;;;;8.72;96.38672;1000.967;;;;
2019/10/12 04:02:28;;;;;;;6.8;4.5;;;;;;;8.77;95.84961;1000.988;;;;
2019/10/12 04:04:53;;;;;;;5.9;4.3;;;;;;;8.84;95.2832;1000.977;;;;
2019/10/12 04:07:18;;;;;;;4.7;4;;;;;;;8.82;95.12988;1001.001;;;;
2019/10/12 04:09:43;;;;;;;5.8;4.3;;;;;;;8.62;95.99902;1001.031;;;;
2019/10/12 04:12:08;;;;;;;5;4.2;;;;;;;8.6;96.38086;1001.024;;;;
2019/10/12 04:14:33;;;;;;;4.9;4.2;;;;;;;8.67;96.02051;1001.025;;;;
2019/10/12 04:16:58;;;;;;;5.1;4;;;;;;;8.61;95.83789;1001.063;;;;
2019/10/12 04:19:23;;;;;;;5.5;4.1;;;;;;;8.45;96.85938;1001.056;;;;
2019/10/12 04:21:48;;;;;;;5.4;4.2;;;;;;;8.47;96.89941;1001.034;;;;
2019/10/12 04:24:13;;;;;;;5.7;4.2;;;;;;;8.45;96.88184;1001.078;;;;
2019/10/12 04:26:38;;;;;;;6.4;4.3;;;;;;;8.44;96.9375;1001.049;;;;
2019/10/12 04:29:04;;;;;;;5;4;;;;;;;8.53;96.75;1001.029;;;;
2019/10/12 04:31:29;;;;;;;5;4;;;;;;;8.54;96.2666;1001.026;;;;
2019/10/12 04:33:54;;;;;;;5.1;4;;;;;;;8.63;95.9082;1001.065;;;;
2019/10/12 04:36:19;;;;;;;6;3.9;;;;;;;8.63;95.82813;1001.087;;;;
2019/10/12 04:38:44;;;;;;;4.9;4;;;;;;;8.67;95.37109;1001.078;;;;
2019/10/12 04:41:09;;;;;;;4.9;3.7;;;;;;;8.69;95.14746;1001.082;;;;
2019/10/12 04:43:34;;;;;;;4.7;4.1;;;;;;;8.68;95.28223;1001.1;;;;
2019/10/12 04:45:59;;;;;;;4.6;4;;;;;;;8.68;95.40723;1001.079;;;;
2019/10/12 04:48:24;;;;;;;4.5;4;;;;;;;8.66;95.53809;1001.136;;;;
2019/10/12 04:50:50;;;;;;;5.1;4;;;;;;;8.56;95.58496;1001.114;;;;
2019/10/12 04:53:15;;;;;;;4.2;3.8;;;;;;;8.52;95.55371;1001.127;;;;
2019/10/12 04:55:40;;;;;;;5.7;4;;;;;;;8.29;96.28809;1001.14;;;;
2019/10/12 04:58:05;;;;;;;6;4.4;;;;;;;8.12;97.87891;1001.179;;;;
2019/10/12 05:00:30;;;;;;;5.8;4.4;;;;;;;8.17;98.5498;1001.222;;;;
2019/10/12 05:02:55;;;;;;;5.3;4.1;;;;;;;8.34;97.61133;1001.265;;;;
2019/10/12 05:05:20;;;;;;;6.4;4.1;;;;;;;8.35;97.01953;1001.249;;;;
2019/10/12 05:07:46;;;;;;;5;3.6;;;;;;;8.33;97.00391;1001.261;;;;
2019/10/12 05:10:11;;;;;;;6.9;3.9;;;;;;;8.42;96.78516;1001.273;;;;
2019/10/12 05:12:36;;;;;;;5.2;3.9;;;;;;;8.47;96.14746;1001.219;;;;
2019/10/12 05:15:01;;;;;;;6.5;3.9;;;;;;;8.46;96.31445;1001.31;;;;
2019/10/12 05:17:26;;;;;;;5.7;3.8;;;;;;;8.44;96.32227;1001.266;;;;
2019/10/12 05:19:51;;;;;;;4.1;3.7;;;;;;;8.42;96.72754;1001.24;;;;
2019/10/12 05:22:16;;;;;;;5.5;3.7;;;;;;;8.21;97.27344;1001.256;;;;
2019/10/12 05:24:41;;;;;;;6;4;;;;;;;8.2;97.5791;1001.229;;;;
2019/10/12 05:27:06;;;;;;;5.7;3.8;;;;;;;8.13;97.99512;1001.23;;;;
2019/10/12 05:29:31;;;;;;;5.8;3.8;;;;;;;8.35;98.1123;1001.195;;;;
2019/10/12 05:31:56;;;;;;;4;3.5;;;;;;;8.37;97.5127;1001.171;;;;
2019/10/12 05:34:21;;;;;;;5.1;3.7;;;;;;;8.42;97.00098;1001.161;;;;
2019/10/12 05:36:47;;;;;;;6.4;3.6;;;;;;;8.54;96.19824;1001.128;;;;
2019/10/12 05:39:12;;;;;;;5;3.5;;;;;;;8.6;95.57227;1001.132;;;;
2019/10/12 05:41:37;;;;;;;4.7;3.5;;;;;;;8.65;95.19629;1001.155;;;;
2019/10/12 05:44:02;;;;;;;4.7;4;;;;;;;8.66;95.02539;1001.221;;;;
2019/10/12 05:46:27;;;;;;;5.7;4.1;;;;;;;8.62;94.74609;1001.27;;;;
2019/10/12 05:48:52;;;;;;;6.1;4;;;;;;;8.6;94.97949;1001.279;;;;
2019/10/12 05:51:17;;;;;;;5.9;4;;;;;;;8.42;95.65723;1001.319;;;;
2019/10/12 05:53:43;;;;;;;6.3;4.3;;;;;;;8.32;96.99023;1001.342;;;;
2019/10/12 05:56:08;;;;;;;6.2;4.1;;;;;;;8.49;96.6875;1001.317;;;;
2019/10/12 05:58:33;;;;;;;7.3;4.3;;;;;;;8.52;96.38574;1001.31;;;;
2019/10/12 06:00:58;;;;;;;8;4.4;;;;;;;8.6;96.25586;1001.271;;;;
2019/10/12 06:03:23;;;;;;;4.7;3.5;;;;;;;8.64;96.12891;1001.302;;;;
2019/10/12 06:05:48;;;;;;;8.1;4.9;;;;;;;8.74;96.18555;1001.288;;;;
2019/10/12 06:08:13;;;;;;;7.3;4.4;;;;;;;8.74;95.98047;1001.295;;;;
2019/10/12 06:10:39;;;;;;;10;4.8;;;;;;;8.85;95.82129;1001.236;;;;
2019/10/12 06:13:04;;;;;;;10.2;5.1;;;;;;;8.93;95.62305;1001.229;;;;
2019/10/12 06:15:39;;;;;;;6.8;4.6;;;;;;;8.92;95.76758;1001.257;;;;
2019/10/12 06:17:54;;;;;;;8.2;4.1;;;;;;;9;95.1582;1001.304;;;;
2019/10/12 06:20:19;;;;;;;6.8;4.3;;;;;;;8.92;95.78027;1001.321;;;;
2019/10/12 06:22:44;;;;;;;7.3;4.9;;;;;;;9.15;95.72754;1001.272;;;;
2019/10/12 06:25:10;;;;;;;9;4.4;;;;;;;9.3;95.08887;1001.232;;;;
2019/10/12 06:27:35;;;;;;;7.5;3.7;;;;;;;9.43;94.16895;1001.273;;;;
2019/10/12 06:30:01;;;;;;;6.5;4.1;;;;;;;9.4;94.33203;1001.255;;;;
2019/10/12 06:32:26;;;;;;;9.8;4.7;;;;;;;9.47;94.36133;1001.306;;;;
2019/10/12 06:34:51;;;;;;;7;4.2;;;;;;;9.48;94.74023;1001.281;;;;
2019/10/12 06:37:16;;;;;;;6.8;4.1;;;;;;;9.63;94.54297;1001.363;;;;
2019/10/12 06:39:41;;;;;;;6.9;4.3;;;;;;;9.78;94.48535;1001.366;;;;
2019/10/12 06:42:06;;;;;;;5.4;4.1;;;;;;;9.95;94.30566;1001.413;;;;
2019/10/12 06:44:31;;;;;;;5.1;4.1;;;;;;;10.06;94.39746;1001.383;;;;
2019/10/12 06:46:56;;;;;;;7.7;3.9;;;;;;;10.31;94.66992;1001.414;;;;
2019/10/12 06:49:22;;;;;;;7.4;4;;;;;;;10.51;94.17578;1001.445;;;;
2019/10/12 06:51:46;;;;;;;7.8;3.9;;;;;;;10.71;93.26855;1001.398;;;;
2019/10/12 06:54:12;;;;;;;5.3;3.7;;;;;;;10.92;93.06055;1001.451;;;;
2019/10/12 06:56:37;;;;;;;5.3;3.5;;;;;;;11.24;91.9375;1001.451;;;;
2019/10/12 06:59:02;;;;;;;4.8;3.4;;;;;;;11.4;91.30664;1001.429;;;;
2019/10/12 07:01:27;;;;;;;5.2;3;;;;;;;11.71;89.77637;1001.471;;;;
2019/10/12 07:03:52;;;;;;;5;3.2;;;;;;;11.95;89.05469;1001.499;;;;
2019/10/12 07:06:17;;;;;;;5;3.1;;;;;;;12.37;87.5;1001.518;;;;
2019/10/12 07:08:42;;;;;;;6.5;3.3;;;;;;;;;;;;;
2019/10/12 07:11:08;;;;;;;6.1;2.8;;;;;;;;;;;;;
2019/10/12 07:13:33;;;;;;;5.4;3.2;;;;;;;;;;;;;
2019/10/12 07:15:58;;;;;;;4;2.8;;;;;;;;;;;;;
2019/10/12 07:18:23;;;;;;;5.7;3;;;;;;;;;;;;;
2019/10/12 07:20:48;;;;;;;4;2.5;;;;;;;;;;;;;
2019/10/12 07:23:13;;;;;;;5;2.8;;;;;;;;;;;;;
2019/10/12 07:25:39;;;;;;;4.6;2.4;;;;;;;;;;;;;
2019/10/12 07:28:03;;;;;;;6.4;2.7;;;;;;;;;;;;;
2019/10/12 07:30:28;;;;;;;4.2;2.6;;;;;;;;;;;;;
2019/10/12 07:32:54;;;;;;;6.3;2.8;;;;;;;;;;;;;
2019/10/12 07:35:19;;;;;;;7.1;2.9;;;;;;;;;;;;;
2019/10/12 07:37:44;;;;;;;6.9;2.5;;;;;;;;;;;;;
2019/10/12 07:40:09;;;;;;;4.2;2.6;;;;;;;;;;;;;
2019/10/12 07:42:34;;;;;;;5.5;2.7;;;;;;;;;;;;;
2019/10/12 07:44:59;;;;;;;5.1;2.6;;;;;;;;;;;;;
2019/10/12 07:47:24;;;;;;;5.2;2.7;;;;;;;;;;;;;
2019/10/12 07:49:49;;;;;;;4.6;2.5;;;;;;;;;;;;;
2019/10/12 07:52:14;;;;;;;4.3;2.4;;;;;;;;;;;;;
2019/10/12 07:54:40;;;;;;;3.4;2.2;;;;;;;;;;;;;
2019/10/12 07:57:05;;;;;;;5.5;2.5;;;;;;;;;;;;;
2019/10/12 07:59:30;;;;;;;5.7;2.9;;;;;;;;;;;;;
2019/10/12 08:01:55;;;;;;;4.4;2.5;;;;;;;;;;;;;
2019/10/12 08:04:20;;;;;;;4.9;2.4;;;;;;;;;;;;;
2019/10/12 08:06:45;;;;;;;5.1;2.3;;;;;;;;;;;;;
2019/10/12 08:09:10;;;;;;;3.8;2.1;;;;;;;;;;;;;
2019/10/12 08:11:35;;;;;;;4.8;2.2;;;;;;;;;;;;;
2019/10/12 08:14:00;;;;;;;5.6;2.4;;;;;;;;;;;;;
2019/10/12 08:16:25;;;;;;;4.4;2.2;;;;;;;;;;;;;
2019/10/12 08:18:51;;;;;;;7.5;2.4;;;;;;;;;;;;;
2019/10/12 08:21:16;;;;;;;6.4;2.3;;;;;;;;;;;;;
2019/10/12 08:23:41;;;;;;;3.5;2.2;;;;;;;;;;;;;
2019/10/12 08:26:06;;;;;;;7.8;2.3;;;;;;;;;;;;;
2019/10/12 08:28:31;;;;;;;5.2;2.1;;;;;;;;;;;;;
2019/10/12 08:30:56;;;;;;;5.9;2.3;;;;;;;;;;;;;
2019/10/12 08:33:22;;;;;;;7.9;2.3;;;;;;;;;;;;;
2019/10/12 08:35:47;;;;;;;5.5;2.2;;;;;;;;;;;;;
2019/10/12 08:38:12;;;;;;;3.4;2.1;;;;;;;;;;;;;
2019/10/12 08:40:37;;;;;;;8.6;2.6;;;;;;;;;;;;;
2019/10/12 08:43:02;;;;;;;4.9;2.4;;;;;;;;;;;;;
2019/10/12 08:45:27;;;;;;;5.7;2.4;;;;;;;;;;;;;
2019/10/12 08:47:52;;;;;;;5.1;2.3;;;;;;;;;;;;;
2019/10/12 08:50:17;;;;;;;4.2;2.2;;;;;;;;;;;;;
2019/10/12 08:52:42;;;;;;;4.3;2.7;;;;;;;;;;;;;
2019/10/12 08:55:07;;;;;;;6.3;2.5;;;;;;;;;;;;;
2019/10/12 08:57:32;;;;;;;4.7;2.4;;;;;;;;;;;;;
2019/10/12 08:59:58;;;;;;;5.1;2.3;;;;;;;;;;;;;
2019/10/12 09:02:23;;;;;;;5.7;3.3;;;;;;;;;;;;;
2019/10/12 09:04:48;;;;;;;5.4;2.7;;;;;;;;;;;;;
2019/10/12 09:07:13;;;;;;;6.3;2.4;;;;;;;;;;;;;
2019/10/12 09:09:38;;;;;;;4.5;2.2;;;;;;;;;;;;;
2019/10/12 09:12:03;;;;;;;4.2;2.5;;;;;;;;;;;;;
2019/10/12 09:14:28;;;;;;;4.4;2.1;;;;;;;;;;;;;
2019/10/12 09:16:53;;;;;;;4.8;2.6;;;;;;;;;;;;;
2019/10/12 09:19:18;;;;;;;7;2.4;;;;;;;;;;;;;
2019/10/12 09:21:44;;;;;;;4.6;2.2;;;;;;;;;;;;;
2019/10/12 09:24:09;;;;;;;6.1;2.5;;;;;;;;;;;;;
2019/10/12 09:26:34;;;;;;;4.5;2.2;;;;;;;;;;;;;
2019/10/12 09:28:59;;;;;;;5.4;2.5;;;;;;;;;;;;;
2019/10/12 09:31:24;;;;;;;7.4;2.2;;;;;;;;;;;;;
2019/10/12 09:33:49;;;;;;;4.4;2.3;;;;;;;;;;;;;
2019/10/12 09:36:14;;;;;;;5.9;2.6;;;;;;;;;;;;;
2019/10/12 09:38:39;;;;;;;4;2.4;;;;;;;;;;;;;
2019/10/12 09:41:04;;;;;;;4.6;2.4;;;;;;;;;;;;;
2019/10/12 09:43:29;;;;;;;5.4;2.5;;;;;;;;;;;;;
2019/10/12 09:45:54;;;;;;;4.8;2.4;;;;;;;;;;;;;
2019/10/12 09:48:20;;;;;;;2.8;2.1;;;;;;;;;;;;;
2019/10/12 09:50:45;;;;;;;4.4;2.4;;;;;;;;;;;;;
2019/10/12 09:53:10;;;;;;;4.3;2.3;;;;;;;;;;;;;
2019/10/12 09:55:35;;;;;;;5;2.3;;;;;;;;;;;;;
2019/10/12 09:58:00;;;;;;;3.4;2;;;;;;;;;;;;;
2019/10/12 10:00:25;;;;;;;4.2;2.2;;;;;;;;;;;;;
2019/10/12 10:02:50;;;;;;;4.9;2.5;;;;;;;;;;;;;
2019/10/12 10:05:30;;;;;;;5.9;2.6;;;;;;;;;;;;;
2019/10/12 10:07:40;;;;;;;4.8;2.3;;;;;;;;;;;;;
2019/10/12 10:10:06;;;;;;;4.4;2.4;;;;;;;;;;;;;
2019/10/12 10:12:31;;;;;;;4.1;2.1;;;;;;;;;;;;;
2019/10/12 10:14:56;;;;;;;4.4;2.5;;;;;;;;;;;;;
2019/10/12 10:17:21;;;;;;;17.9;3.3;;;;;;;;;;;;;
2019/10/12 10:19:46;;;;;;;5.4;2.4;;;;;;;;;;;;;
2019/10/12 10:22:11;;;;;;;16.9;3.5;;;;;;;;;;;;;
2019/10/12 10:24:36;;;;;;;5.9;2.7;;;;;;;;;;;;;
2019/10/12 10:27:01;;;;;;;5.7;2.6;;;;;;;;;;;;;
2019/10/12 10:29:26;;;;;;;6.7;2.7;;;;;;;;;;;;;
2019/10/12 10:31:51;;;;;;;6.7;2.8;;;;;;;;;;;;;
2019/10/12 10:34:16;;;;;;;4.3;2.5;;;;;;;;;;;;;
2019/10/12 10:36:41;;;;;;;6.4;2.5;;;;;;;;;;;;;
2019/10/12 10:39:07;;;;;;;5.8;2.6;;;;;;;;;;;;;
2019/10/12 10:41:32;;;;;;;4.1;2.7;;;;;;;;;;;;;
2019/10/12 10:43:57;;;;;;;5.7;2.8;;;;;;;;;;;;;
2019/10/12 10:46:22;;;;;;;6.8;3;;;;;;;;;;;;;
2019/10/12 10:48:47;;;;;;;5.9;2.9;;;;;;;;;;;;;
2019/10/12 10:51:12;;;;;;;6.6;2.9;;;;;;;;;;;;;
2019/10/12 10:53:37;;;;;;;6.8;3.6;;;;;;;;;;;;;
2019/10/12 10:56:02;;;;;;;5.4;2.8;;;;;;;;;;;;;
2019/10/12 10:58:27;;;;;;;7.2;3.1;;;;;;;;;;;;;
2019/10/12 11:00:52;;;;;;;6.2;3.3;;;;;;;;;;;;;
2019/10/12 11:03:18;;;;;;;5.2;3;;;;;;;;;;;;;
2019/10/12 11:05:43;;;;;;;4.5;2.9;;;;;;;;;;;;;
2019/10/12 11:08:08;;;;;;;5.3;2.9;;;;;;;;;;;;;
2019/10/12 11:10:33;;;;;;;5.1;2.7;;;;;;;;;;;;;
2019/10/12 11:12:58;;;;;;;5.2;3.3;;;;;;;;;;;;;
2019/10/12 11:15:23;;;;;;;4.5;2.6;;;;;;;;;;;;;
2019/10/12 11:17:48;;;;;;;6.1;3;;;;;;;;;;;;;
2019/10/12 11:20:13;;;;;;;5.6;3;;;;;;;;;;;;;
2019/10/12 11:22:38;;;;;;;4.6;2.8;;;;;;;;;;;;;
2019/10/12 11:25:03;;;;;;;5.7;2.5;;;;;;;;;;;;;
2019/10/12 11:27:28;;;;;;;5.3;3.1;;;;;;;;;;;;;
2019/10/12 11:29:54;;;;;;;3.8;2.4;;;;;;;;;;;;;
2019/10/12 11:32:19;;;;;;;5;2.3;;;;;;;;;;;;;
2019/10/12 11:34:44;;;;;;;4.3;2.5;;;;;;;;;;;;;
2019/10/12 11:37:09;;;;;;;4;2.5;;;;;;;;;;;;;
2019/10/12 11:39:34;;;;;;;6.6;2.8;;;;;;;;;;;;;
2019/10/12 11:41:59;;;;;;;6.2;2.9;;;;;;;;;;;;;
2019/10/12 11:44:24;;;;;;;6.9;2.6;;;;;;;;;;;;;
2019/10/12 11:46:49;;;;;;;5;2.4;;;;;;;;;;;;;
2019/10/12 11:49:15;;;;;;;4.9;2.4;;;;;;;;;;;;;
2019/10/12 11:51:40;;;;;;;3.9;2.4;;;;;;;;;;;;;
2019/10/12 11:54:05;;;;;;;3.7;2.3;;;;;;;;;;;;;
2019/10/12 11:56:30;;;;;;;6.7;2.4;;;;;;;;;;;;;
2019/10/12 11:58:55;;;;;;;4.9;2.4;;;;;;;;;;;;;
2019/10/12 12:01:20;;;;;;;3.8;2.4;;;;;;;;;;;;;
2019/10/12 12:03:45;;;;;;;4.5;2.6;;;;;;;;;;;;;
2019/10/12 12:06:10;;;;;;;6.8;2.6;;;;;;;;;;;;;
2019/10/12 12:08:35;;;;;;;4.9;2.5;;;;;;;;;;;;;
2019/10/12 12:11:00;;;;;;;6.1;2.7;;;;;;;;;;;;;
2019/10/12 12:13:25;;;;;;;4;2.5;;;;;;;;;;;;;
2019/10/12 12:15:50;;;;;;;6.2;3;;;;;;;;;;;;;
2019/10/12 12:18:15;;;;;;;8.3;2.7;;;;;;;;;;;;;
2019/10/12 12:20:41;;;;;;;7.2;2.5;;;;;;;;;;;;;
2019/10/12 12:23:06;;;;;;;6.7;2.5;;;;;;;;;;;;;
2019/10/12 12:25:31;;;;;;;5.7;2.7;;;;;;;;;;;;;
2019/10/12 12:27:56;;;;;;;4.6;2.4;;;;;;;;;;;;;
2019/10/12 12:30:21;;;;;;;5.9;2.4;;;;;;;;;;;;;
2019/10/12 12:32:46;;;;;;;5.3;2;;;;;;;;;;;;;
2019/10/12 12:35:11;;;;;;;4.7;2.2;;;;;;;;;;;;;
2019/10/12 12:37:36;;;;;;;3.7;2.4;;;;;;;;;;;;;
2019/10/12 12:40:01;;;;;;;7.2;2.4;;;;;;;;;;;;;
2019/10/12 12:42:27;;;;;;;6.9;2.5;;;;;;;;;;;;;
2019/10/12 12:44:52;;;;;;;5.6;2.5;;;;;;;;;;;;;
2019/10/12 12:47:17;;;;;;;5.3;2.4;;;;;;;;;;;;;
2019/10/12 12:49:42;;;;;;;3.6;2.3;;;;;;;;;;;;;
2019/10/12 12:52:07;;;;;;;7.8;2.4;;;;;;;;;;;;;
2019/10/12 12:54:32;;;;;;;6;2.4;;;;;;;;;;;;;
2019/10/12 12:56:57;;;;;;;4.6;2.2;;;;;;;;;;;;;
2019/10/12 12:59:22;;;;;;;5.2;2.3;;;;;;;;;;;;;
2019/10/12 13:01:47;;;;;;;6.4;2.5;;;;;;;;;;;;;
2019/10/12 13:04:12;;;;;;;5.1;2.4;;;;;;;;;;;;;
2019/10/12 13:06:38;;;;;;;4.6;2.4;;;;;;;;;;;;;
2019/10/12 13:09:03;;;;;;;6.1;3.7;;;;;;;;;;;;;
2019/10/12 13:11:28;;;;;;;6.2;2.7;;;;;;;;;;;;;
2019/10/12 13:13:53;;;;;;;5.7;2.8;;;;;;;;;;;;;
2019/10/12 13:16:18;;;;;;;6.4;2.6;;;;;;;;;;;;;
2019/10/12 13:18:43;;;;;;;7;2.5;;;;;;;;;;;;;
2019/10/12 13:21:08;;;;;;;4.6;2.6;;;;;;;;;;;;;
2019/10/12 13:23:33;;;;;;;8;4.1;;;;;;;;;;;;;
2019/10/12 13:25:58;;;;;;;5.9;3.8;;;;;;;;;;;;;
2019/10/12 13:28:24;;;;;;;5.3;2.8;;;;;;;;;;;;;
2019/10/12 13:30:49;;;;;;;3.9;2.6;;;;;;;;;;;;;
2019/10/12 13:33:14;;;;;;;5.3;2.7;;;;;;;;;;;;;
2019/10/12 13:35:39;;;;;;;6.6;2.8;;;;;;;;;;;;;
2019/10/12 13:38:04;;;;;;;7.3;2.9;;;;;;;;;;;;;
2019/10/12 13:40:29;;;;;;;7.1;4.6;;;;;;;;;;;;;
2019/10/12 13:42:54;;;;;;;5.7;3.3;;;;;;;;;;;;;
2019/10/12 13:45:19;;;;;;;5.7;2.9;;;;;;;;;;;;;
2019/10/12 13:47:44;;;;;;;5.8;2.8;;;;;;;;;;;;;
2019/10/12 13:50:10;;;;;;;5;2.4;;;;;;;;;;;;;
2019/10/12 13:52:35;;;;;;;6;2.7;;;;;;;;;;;;;
2019/10/12 13:55:00;;;;;;;6.6;2.8;;;;;;;;;;;;;
2019/10/12 13:57:25;;;;;;;6.5;2.9;;;;;;;;;;;;;
2019/10/12 13:59:50;;;;;;;5.2;2.9;;;;;;;;;;;;;
2019/10/12 14:02:15;;;;;;;7.1;3;;;;;;;;;;;;;
2019/10/12 14:04:41;;;;;;;5.6;3;;;;;;;;;;;;;
2019/10/12 14:07:06;;;;;;;5.2;3;;;;;;;;;;;;;
2019/10/12 14:09:31;;;;;;;7.6;2.8;;;;;;;;;;;;;
2019/10/12 14:11:56;;;;;;;7.6;3;;;;;;;;;;;;;
2019/10/12 14:14:21;;;;;;;7.5;2.8;;;;;;;;;;;;;
2019/10/12 14:16:46;;;;;;;6.1;2.9;;;;;;;;;;;;;
2019/10/12 14:19:11;;;;;;;7;2.8;;;;;;;;;;;;;
2019/10/12 14:21:36;;;;;;;6.1;2.6;;;;;;;;;;;;;
2019/10/12 14:24:01;;;;;;;7;2.8;;;;;;;;;;;;;
2019/10/12 14:26:27;;;;;;;3.9;2.6;;;;;;;;;;;;;
2019/10/12 14:28:52;;;;;;;6;3.6;;;;;;;;;;;;;
2019/10/12 14:31:17;;;;;;;7.1;2.8;;;;;;;;;;;;;
2019/10/12 14:33:42;;;;;;;9.1;3.5;;;;;;;;;;;;;
2019/10/12 14:36:07;;;;;;;8.6;3.2;;;;;;;;;;;;;
2019/10/12 14:38:32;;;;;;;6;3;;;;;;;;;;;;;
2019/10/12 14:41:04;;;;;;;7.2;3;;;;;;;;;;;;;
2019/10/12 14:43:22;;;;;;;6.3;3.3;;;;;;;;;;;;;
2019/10/12 14:45:47;;;;;;;4.9;3.2;;;;;;;;;;;;;
2019/10/12 14:48:12;;;;;;;10;2.8;;;;;;;;;;;;;
2019/10/12 14:50:37;;;;;;;5.8;3.1;;;;;;;;;;;;;
2019/10/12 14:53:03;;;;;;;6.1;2.9;;;;;;;;;;;;;
2019/10/12 14:55:28;;;;;;;7.2;3.4;;;;;;;;;;;;;
2019/10/12 14:57:53;;;;;;;5.9;3.2;;;;;;;;;;;;;
2019/10/12 15:00:18;;;;;;;10;4.1;;;;;;;;;;;;;
2019/10/12 15:02:43;;;;;;;7.6;3.4;;;;;;;;;;;;;
2019/10/12 15:05:08;;;;;;;7.5;3.5;;;;;;;;;;;;;
2019/10/12 15:07:33;;;;;;;6.6;3.3;;;;;;;;;;;;;
2019/10/12 15:09:58;;;;;;;5.8;3;;;;;;;;;;;;;
2019/10/12 15:12:23;;;;;;;6.7;3.3;;;;;;;;;;;;;
2019/10/12 15:14:48;;;;;;;5.2;3;;;;;;;;;;;;;
2019/10/12 15:17:14;;;;;;;6.1;3.4;;;;;;;;;;;;;
2019/10/12 15:19:39;;;;;;;4.7;3.2;;;;;;;;;;;;;
2019/10/12 15:22:04;;;;;;;5.8;3.3;;;;;;;;;;;;;
2019/10/12 15:24:29;;;;;;;4.1;3;;;;;;;;;;;;;
2019/10/12 15:26:54;;;;;;;7;3.3;;;;;;;;;;;;;
2019/10/12 15:29:19;;;;;;;4.7;3.2;;;;;;;;;;;;;
2019/10/12 15:31:44;;;;;;;8.3;3.8;;;;;;;;;;;;;
2019/10/12 15:34:09;;;;;;;8.8;3.5;;;;;;;;;;;;;
2019/10/12 15:36:34;;;;;;;7.2;3.5;;;;;;;;;;;;;
2019/10/12 15:38:59;;;;;;;6.1;3.3;;;;;;;;;;;;;
2019/10/12 15:41:24;;;;;;;9.6;3.9;;;;;;;;;;;;;
2019/10/12 15:43:49;;;;;;;6.5;3.4;;;;;;;;;;;;;
2019/10/12 15:46:15;;;;;;;6.7;3.8;;;;;;;;;;;;;
2019/10/12 15:48:40;;;;;;;7.6;3.6;;;;;;;;;;;;;
2019/10/12 15:51:05;;;;;;;7.7;3.9;;;;;;;;;;;;;
2019/10/12 15:53:30;;;;;;;7.6;4.1;;;;;;;;;;;;;
2019/10/12 15:55:55;;;;;;;8.7;4;;;;;;;;;;;;;
2019/10/12 15:58:20;;;;;;;6.9;4.2;;;;;;;;;;;;;
2019/10/12 16:00:45;;;;;;;5.5;3.7;;;;;;;;;;;;;
2019/10/12 16:03:10;;;;;;;7;3.6;;;;;;;;;;;;;
2019/10/12 16:05:35;;;;;;;6.9;3.7;;;;;;;;;;;;;
2019/10/12 16:08:01;;;;;;;8.4;3.9;;;;;;;;;;;;;
2019/10/12 16:10:26;;;;;;;6.9;3.9;;;;;;;;;;;;;
2019/10/12 16:12:51;;;;;;;5.9;3.6;;;;;;;;;;;;;
2019/10/12 16:15:16;;;;;;;6.8;3.9;;;;;;;;;;;;;
2019/10/12 16:17:41;;;;;;;6.6;3.5;;;;;;;;;;;;;
2019/10/12 16:20:06;;;;;;;7.2;4;;;;;;;;;;;;;
2019/10/12 16:22:31;;;;;;;6.4;4.5;;;;;;;;;;;;;
2019/10/12 16:24:56;;;;;;;6.9;4.2;;;;;;;;;;;;;
2019/10/12 16:27:21;;;;;;;7.9;4;;;;;;;;;;;;;
2019/10/12 16:29:46;;;;;;;7;3.8;;;;;;;;;;;;;
2019/10/12 16:32:11;;;;;;;7.4;4.1;;;;;;;;;;;;;
2019/10/12 16:34:36;;;;;;;6.9;3.9;;;;;;;;;;;;;
2019/10/12 16:37:02;;;;;;;6.7;4;;;;;;;;;;;;;
2019/10/12 16:39:27;;;;;;;7.5;4.4;;;;;;;;;;;;;
2019/10/12 16:41:52;;;;;;;9;4.1;;;;;;;;;;;;;
2019/10/12 16:44:17;;;;;;;8;4.2;;;;;;;;;;;;;
2019/10/12 16:46:42;;;;;;;8.8;4.5;;;;;;;;;;;;;
2019/10/12 16:49:07;;;;;;;6.3;3.9;;;;;;;;;;;;;
2019/10/12 16:51:32;;;;;;;7.2;4.8;;;;;;;;;;;;;
2019/10/12 16:53:58;;;;;;;8.6;4.7;;;;;;;;;;;;;
2019/10/12 16:56:22;;;;;;;10;4.8;;;;;;;;;;;;;
2019/10/12 16:58:48;;;;;;;9.6;4.7;;;;;;;;;;;;;
2019/10/12 17:01:13;;;;;;;11.1;4.6;;;;;;;;;;;;;
2019/10/12 17:03:38;;;;;;;9;4.7;;;;;;;;;;;;;
2019/10/12 17:06:03;;;;;;;6.9;4.8;;;;;;;;;;;;;
2019/10/12 17:08:28;;;;;;;6.9;5;;;;;;;;;;;;;
2019/10/12 17:10:53;;;;;;;8.6;5.8;;;;;;;;;;;;;
2019/10/12 17:13:18;;;;;;;9.9;5.5;;;;;;;;;;;;;
2019/10/12 17:15:43;;;;;;;8.6;5.8;;;;;;;;;;;;;
2019/10/12 17:18:08;;;;;;;9.6;5.8;;;;;;;;;;;;;
2019/10/12 17:20:33;;;;;;;10.4;5.6;;;;;;;;;;;;;
2019/10/12 17:22:59;;;;;;;10;5.6;;;;;;;;;;;;;
2019/10/12 17:25:23;;;;;;;9.3;5.4;;;;;;;;;;;;;
2019/10/12 17:27:49;;;;;;;7.1;5.7;;;;;;;;;;;;;
2019/10/12 17:30:14;;;;;;;9.4;5.8;;;;;;;;;;;;;
2019/10/12 17:32:39;;;;;;;10.7;5.9;;;;;;;;;;;;;
2019/10/12 17:35:04;;;;;;;8.8;5.8;;;;;;;;;;;;;
2019/10/12 17:37:29;;;;;;;10.7;5.8;;;;;;;;;;;;;
2019/10/12 17:39:54;;;;;;;9.7;6;;;;;;;;;;;;;
2019/10/12 17:42:19;;;;;;;9.4;6.1;;;;;;;;;;;;;
2019/10/12 17:44:44;;;;;;;10.7;6.3;;;;;;;;;;;;;